• Join FlightAware (Why Join?)
  • Login
  • US Flag 
06:23PM EDT


 

Airport Tracker/Info


-or-


 

Live Flight TrackerFlight Track Log ✈ EMD24 ✈ 20-Jun-2013 ✈ KLMO - KGLD

Flight Track Log - Related Links

Times and Time Zones

All times are in EDT time to prevent confusion due to time zone crossing. See the EMD24 flight status page for this flight to view local times or setup timezone preferences in your user account.

Time Position Orientation Groundspeed Altitude Reporting Facility
EDT Latitude Longitude Course Direction KTS MPH feet Rate Location/Type
06:46PM 40.2333 -105.0833 14° North 210 242 7,100  Level Denver TRACON
06:47PM 40.2833 -105.0667 14° North 231 266 6,900 360 Descending Denver TRACON
06:48PM 40.3050 -105.0047 65° Northeast 207 238 7,800 840 Climbing Denver Center
06:49PM 40.2906 -104.9378 106° East 191 220 8,600 540 Climbing Denver Center
06:50PM 40.2758 -104.8664 105° East 188 216 9,000 180 Climbing Denver Center
06:51PM 40.2625 -104.7906 103° East 208 239 9,000  Level Denver Center
06:52PM 40.2483 -104.7078 103° East 216 249 9,000 420 Level Denver Center
06:53PM 40.2369 -104.6314 101° East 215 247 9,900 1,080 Climbing Denver Center
06:54PM 40.2283 -104.5717 101° East 174 200 11,300 1,020 Climbing Denver Center
06:55PM 40.2194 -104.5069 100° East 168 193 12,100 300 Climbing Denver Center
06:56PM 40.1975 -104.4353 112° Southeast 207 238 12,000 -120 Descending Denver Center
06:57PM 40.1742 -104.3536 110° East 221 254 11,900  Descending Denver Center
06:58PM 40.1522 -104.2781 111° Southeast 222 255 12,000  Climbing Denver Center
06:59PM 40.1272 -104.1847 109° East 221 254 11,900 -60 Descending Denver Center
07:00PM 40.1033 -104.1050 111° Southeast 218 251 11,900 300 Level Denver Center
07:02PM 40.0764 -104.0167 112° Southeast 213 245 12,700 480 Climbing Denver Center
07:03PM 40.0592 -103.9511 109° East 196 226 13,000 1,200 Climbing Denver Center
07:04PM 40.0375 -103.8867 114° Southeast 178 205 15,200 1,740 Climbing Denver Center
07:05PM 40.0228 -103.8333 110° East 159 183 16,600 900 Climbing Denver Center
07:06PM 40.0039 -103.7669 110° East 183 211 17,100 240 Climbing Denver Center
07:07PM 39.9819 -103.6994 113° Southeast 213 245 17,100  Level Denver Center
07:08PM 39.9586 -103.6214 111° Southeast 229 264 17,100  Level Denver Center
07:09PM 39.9314 -103.5261 110° East 234 269 17,100  Level Denver Center
07:10PM 39.9069 -103.4431 111° Southeast 243 280 17,100 -60 Level Denver Center
07:11PM 39.8847 -103.3611 109° East 241 277 17,000  Descending Denver Center
07:12PM 39.8586 -103.2661 110° East 234 269 17,100  Climbing Denver Center
07:13PM 39.8322 -103.1894 114° Southeast 232 267 17,100  Level Denver Center
07:14PM 39.8069 -103.1075 112° Southeast 239 275 17,100 -60 Level Denver Center
07:15PM 39.7761 -103.0103 112° Southeast 243 280 17,000 -60 Descending Denver Center
07:16PM 39.7506 -102.9281 112° Southeast 245 282 17,000  Level Denver Center
07:17PM 39.7275 -102.8467 110° East 242 278 17,000 -60 Level Denver Center
07:18PM 39.7014 -102.7661 113° Southeast 241 277 16,900 -60 Descending Denver Center
07:19PM 39.6767 -102.6822 111° Southeast 244 281 16,900  Level Denver Center
07:20PM 39.6556 -102.6053 110° East 239 275 16,900  Level Denver Center
07:21PM 39.6294 -102.5144 110° East 241 277 17,000  Climbing Denver Center
07:22PM 39.6028 -102.4253 111° Southeast 239 275 16,900 -60 Descending Denver Center
07:23PM 39.5792 -102.3489 112° Southeast 238 274 16,900 -180 Level Denver Center
07:24PM 39.5492 -102.2614 114° Southeast 237 273 16,600 -780 Descending Denver Center
07:26PM 39.5222 -102.1744 112° Southeast 264 304 15,200 -1,380 Descending Denver Center
07:27PM 39.4878 -102.0589 111° Southeast 270 311 13,500 -1,500 Descending Denver Center
07:28PM 39.4622 -101.9753 112° Southeast 267 307 12,100 -1,320 Descending Denver Center
07:29PM 39.4331 -101.8792 111° Southeast 261 300 10,800 -1,260 Descending Denver Center
07:30PM 39.4050 -101.8025 115° Southeast 256 295 9,500 -1,620 Descending Denver Center
07:31PM 39.3600 -101.7428 134° Southeast 227 261 7,500 -1,020 Descending Denver Center
07:32PM 39.3142 -101.7039 147° Southeast 207 238 7,400 -120 Descending Denver Center
07:34PM 39.3667 -101.6833 104° East  Level FlightAware Approximate